Aeroporto :
LOGIN :

Iscrizione | Disclaimer

   EN    FR    IT 

 










Sommario :    VFR   VFR Marginale   IFR   IFR Intensivo   IFR Molto Intensivo
Visibilità : 
Base nubi : 
>= 8 km
>= 3000ft
5 / 8 km
1000 / 3000 ft
1500m / 5 km
500 / 1000 ft
800 / 1500m
200 / 500 ft
< 800m
< 200 ft
Simboli :   Temporali  Nebbia  Neve Forte  Precipitazioni Forti  Vento > 20 kt
SIGMETs :   Varie  Temporali  Ghiacco  Turbolenza  Onda orograficha  Ceneri Vulcaniche






- Altitudine del aeroporto : 135 ft
- Codice IATA : EDI


EGPH - Edinburgh

ULTIMO METAR :
  • 220420Z 09005KT 9999 BKN025 BKN039 05/04 Q0999

METARs OBSOLETI :
  • 220350Z 06005KT 9999 -RA SCT028 SCT044 05/04 Q0999
  • 220320Z 07009KT 9999 -RA FEW020 BKN031 05/04 Q0999
  • 220250Z VRB03KT 9999 BKN020 OVC041 05/03 Q1000
  • 220220Z 07004KT 9999 -RA BKN024 OVC040 04/04 Q1000

TAF TAF EGPH
Valido dal 22 a 00 ore il 23 a 00 ore UTC


212301Z 2200/2224 07007KT 9999 SCT035
PROB40
TEMPO 2206/2224 6000 SHRA RA BKN012
ATIS : +44 131 339 2823



MetMap, La meteo Aeronautica in un colpo d'occhio ! - Copyright ORBIFLY Dicembre 2007 - Disclaimer

ORBIFLY MET'MAP TEAM :

Programmazione e sviluppo : Alexandra Zaïnal
Concezione e sviluppo : Baudouin d'Aumeries
Co-Programmazione e sviluppo : Marc-Olivier Méhu
Supporto tecnico e logistico : Manuel Goepfert
Aiuto per la traduzione : Arnaldo La Scala

Contatto : metmap@orbifly.com




FONTI E CREDITI :

   NOAA